Northern, Maryland
Current Conditions -  °F | °C
As of 4:53 AM on Wednesday 26 Nov 2014 (Local Time) from KHGR Reporting Station
Overcast Overcast  
Wind Chill: 37°   Ceiling: 5000
Heat Index: 42°   Visibility: 10mi
Dew Point: 30°   Wind: 8mph
Humidity: 62%   Direction: 10°N
Pressure: 30.08"   Gusts: NA
Location:  39.6779°N, 77.6493°W
Report Text: KHGR 260953Z AUTO 01007KT 10SM OVC050 06/M01 A3008 RMK AO2 SLP198 T00561011 TSNO
Loading
Personal Weather Stations






























Interactive Weather Map New forecast layout! Learn more

10-Day Weather Forecast

Advertisements
Track Severe Weather on mobile